createdAt,value
2023-03-22T00:00:00.460Z,14.32
2023-03-22T00:03:02.882Z,15.52
2023-03-22T00:06:06.761Z,16.80
2023-03-22T00:09:08.569Z,16.63
2023-03-22T00:12:11.098Z,15.98
2023-03-22T00:15:12.657Z,16.30
2023-03-22T00:18:14.518Z,15.13
2023-03-22T00:21:17.540Z,15.27
2023-03-22T00:24:21.409Z,15.52
2023-03-22T00:27:23.039Z,15.43
2023-03-22T00:30:24.698Z,18.23
2023-03-22T00:33:28.657Z,14.43
2023-03-22T00:36:31.381Z,14.87
2023-03-22T00:39:33.039Z,15.55
2023-03-22T00:42:41.473Z,16.48
2023-03-22T00:45:43.295Z,16.73
2023-03-22T00:48:45.727Z,16.52
2023-03-22T00:51:47.395Z,15.68
2023-03-22T00:54:49.020Z,14.57
2023-03-22T00:57:50.779Z,16.97
2023-03-22T01:00:53.198Z,16.35
2023-03-22T01:03:55.268Z,16.05
2023-03-22T01:07:02.347Z,15.93
2023-03-22T01:10:06.166Z,15.35
2023-03-22T01:13:09.057Z,15.98
2023-03-22T01:16:12.168Z,16.25
2023-03-22T01:19:14.011Z,14.75
2023-03-22T01:22:15.757Z,14.20
2023-03-22T01:25:17.907Z,15.57
2023-03-22T01:28:19.558Z,15.90
2023-03-22T01:31:21.201Z,15.23
2023-03-22T01:34:22.983Z,15.70
2023-03-22T01:37:27.667Z,14.47
2023-03-22T01:40:29.404Z,16.52
2023-03-22T01:43:31.952Z,17.25
2023-03-22T01:46:34.044Z,17.05
2023-03-22T01:49:39.491Z,15.38
2023-03-22T01:52:43.423Z,13.88
2023-03-22T01:55:57.890Z,15.50
2023-03-22T01:59:06.554Z,16.80
2023-03-22T02:02:30.967Z,15.05
2023-03-22T02:05:45.413Z,15.27
2023-03-22T02:08:49.812Z,15.87
2023-03-22T02:12:00.242Z,15.60
2023-03-22T02:15:37.582Z,14.88
2023-03-22T02:19:29.240Z,16.85
2023-03-22T02:22:50.079Z,16.02
2023-03-22T02:26:10.788Z,17.50
2023-03-22T02:29:19.261Z,19.88
2023-03-22T02:32:35.981Z,16.13
2023-03-22T02:36:11.866Z,16.25
2023-03-22T02:39:38.242Z,16.98
2023-03-22T02:42:58.802Z,16.33
2023-03-22T02:46:08.668Z,15.80
2023-03-22T02:49:29.341Z,16.33
2023-03-22T02:52:51.573Z,16.88
2023-03-22T02:56:08.343Z,17.27
2023-03-22T02:59:13.255Z,17.08
2023-03-22T03:02:19.694Z,15.95
2023-03-22T03:05:23.910Z,17.80
2023-03-22T03:08:29.362Z,17.27
2023-03-22T03:11:33.266Z,16.92
2023-03-22T03:14:37.998Z,17.33
2023-03-22T03:17:52.508Z,17.05
2023-03-22T03:21:02.734Z,17.67
2023-03-22T03:24:23.183Z,16.70
2023-03-22T03:27:51.405Z,17.77
2023-03-22T03:31:07.860Z,17.08
2023-03-22T03:34:10.094Z,17.15
2023-03-22T03:37:17.809Z,18.13
2023-03-22T03:40:32.969Z,17.75
2023-03-22T03:43:35.818Z,15.88
2023-03-22T03:46:39.184Z,16.87
2023-03-22T03:49:44.091Z,18.83
2023-03-22T03:52:47.212Z,17.65
2023-03-22T03:55:49.387Z,17.98
2023-03-22T03:58:52.857Z,18.92
2023-03-22T04:01:54.673Z,17.95
2023-03-22T04:05:01.018Z,17.60
2023-03-22T04:08:02.646Z,22.77
2023-03-22T04:11:04.919Z,16.60
2023-03-22T04:14:09.072Z,17.95
2023-03-22T04:17:13.577Z,18.03
2023-03-22T04:20:16.694Z,15.68
2023-03-22T04:23:23.140Z,16.00
2023-03-22T04:26:26.926Z,17.77
2023-03-22T04:30:01.420Z,16.23
2023-03-22T04:33:23.278Z,15.90
2023-03-22T04:36:45.211Z,16.92
2023-03-22T04:39:53.968Z,14.17
2023-03-22T04:43:24.185Z,17.17
2023-03-22T04:46:35.684Z,15.13
2023-03-22T04:49:52.054Z,16.00
2023-03-22T04:52:58.681Z,15.35
2023-03-22T04:56:06.591Z,15.30
2023-03-22T04:59:10.874Z,15.70
2023-03-22T05:02:16.055Z,17.75
2023-03-22T05:05:24.721Z,17.00
2023-03-22T05:08:29.336Z,14.57
2023-03-22T05:11:31.569Z,15.33
2023-03-22T05:14:47.225Z,15.55
2023-03-22T05:17:54.154Z,15.63
2023-03-22T05:20:57.578Z,14.43
2023-03-22T05:24:05.746Z,14.48
2023-03-22T05:27:10.894Z,13.60
2023-03-22T05:30:15.546Z,16.02
2023-03-22T05:33:37.279Z,15.52
2023-03-22T05:36:44.437Z,17.17
2023-03-22T05:40:20.087Z,14.55
2023-03-22T05:43:23.989Z,16.53
2023-03-22T05:46:30.401Z,15.10
2023-03-22T05:49:56.419Z,15.32
2023-03-22T05:53:03.101Z,15.83
2023-03-22T05:56:28.031Z,17.15
2023-03-22T05:59:41.888Z,15.90
2023-03-22T06:02:57.586Z,18.33
2023-03-22T06:06:06.790Z,14.90
2023-03-22T06:09:18.400Z,15.63
2023-03-22T06:12:28.831Z,15.25
2023-03-22T06:15:45.379Z,17.33
2023-03-22T06:18:55.990Z,14.45
2023-03-22T06:22:00.750Z,16.67
2023-03-22T06:25:11.322Z,15.30
2023-03-22T06:28:21.081Z,15.25
2023-03-22T06:31:26.308Z,17.90
2023-03-22T06:34:35.087Z,15.23
2023-03-22T06:37:38.628Z,14.88
2023-03-22T06:40:43.561Z,14.32
2023-03-22T06:43:48.882Z,14.25
2023-03-22T06:47:18.930Z,14.93
2023-03-22T06:50:47.696Z,13.48
2023-03-22T06:54:06.053Z,14.55
2023-03-22T06:57:12.406Z,14.57
2023-03-22T07:00:16.931Z,15.07
2023-03-22T07:03:22.013Z,13.23
2023-03-22T07:06:33.013Z,13.63
2023-03-22T07:09:44.204Z,13.98
2023-03-22T07:12:51.126Z,14.30
2023-03-22T07:16:04.172Z,13.00
2023-03-22T07:19:12.186Z,15.17
2023-03-22T07:22:19.175Z,12.73
2023-03-22T07:25:24.187Z,13.15
2023-03-22T07:28:39.457Z,12.40
2023-03-22T07:31:53.891Z,15.10
2023-03-22T07:35:26.942Z,12.57
2023-03-22T07:38:31.603Z,11.60
2023-03-22T07:41:34.567Z,15.40
2023-03-22T07:45:11.426Z,22.40
2023-03-22T07:48:22.777Z,15.45
2023-03-22T07:51:43.727Z,14.53
2023-03-22T07:54:45.690Z,10.52
2023-03-22T07:57:49.890Z,16.02
2023-03-22T08:00:52.631Z,10.80
2023-03-22T08:04:24.570Z,11.48
2023-03-22T08:07:54.718Z,10.18
2023-03-22T08:10:57.894Z,9.75
2023-03-22T08:14:04.509Z,9.48
2023-03-22T08:17:11.716Z,9.13
2023-03-22T08:20:14.684Z,10.07
2023-03-22T08:23:42.034Z,8.37
2023-03-22T08:26:49.753Z,10.27
2023-03-22T08:30:01.052Z,8.23
2023-03-22T08:33:11.292Z,11.93
2023-03-22T08:36:24.822Z,9.55
2023-03-22T08:39:38.678Z,9.45
2023-03-22T08:42:56.294Z,10.48
2023-03-22T08:46:00.246Z,9.43
2023-03-22T08:49:10.346Z,8.55
2023-03-22T08:52:34.660Z,8.10
2023-03-22T08:55:48.317Z,9.73
2023-03-22T08:59:20.806Z,10.38
2023-03-22T09:02:47.945Z,8.60
2023-03-22T09:05:51.647Z,8.43
2023-03-22T09:08:54.613Z,8.50
2023-03-22T09:11:59.226Z,9.05
2023-03-22T09:15:03.275Z,8.27
2023-03-22T09:18:14.826Z,10.67
2023-03-22T09:21:18.237Z,11.05
2023-03-22T09:24:41.632Z,8.63
2023-03-22T09:27:52.571Z,8.20
2023-03-22T09:31:01.696Z,7.20
2023-03-22T09:34:09.689Z,6.82
2023-03-22T09:37:16.007Z,5.60
2023-03-22T09:40:34.342Z,6.50
2023-03-22T09:43:52.273Z,5.88
2023-03-22T09:46:56.827Z,5.53
2023-03-22T09:50:07.515Z,5.25
2023-03-22T09:53:13.763Z,5.90
2023-03-22T09:56:26.785Z,5.20
2023-03-22T09:59:54.075Z,5.32
2023-03-22T10:03:25.585Z,5.53
2023-03-22T10:06:29.573Z,4.93
2023-03-22T10:09:34.353Z,5.78
2023-03-22T10:12:43.260Z,4.90
2023-03-22T10:15:54.229Z,6.38
2023-03-22T10:19:22.231Z,4.93
2023-03-22T10:22:30.790Z,5.18
2023-03-22T10:25:38.898Z,5.78
2023-03-22T10:28:44.704Z,5.72
2023-03-22T10:31:46.894Z,6.00
2023-03-22T10:34:49.396Z,5.97
2023-03-22T10:37:52.982Z,4.70
2023-03-22T10:40:58.128Z,6.45
2023-03-22T10:44:02.640Z,6.23
2023-03-22T10:47:08.617Z,5.05
2023-03-22T10:50:44.576Z,6.72
2023-03-22T10:53:51.092Z,6.28
2023-03-22T10:56:52.782Z,5.22
2023-03-22T10:59:58.242Z,5.67
2023-03-22T11:03:01.819Z,5.28
2023-03-22T11:06:06.678Z,6.55
2023-03-22T11:09:23.644Z,6.55
2023-03-22T11:12:26.888Z,8.30
2023-03-22T11:15:31.410Z,6.75
2023-03-22T11:18:35.256Z,5.43
2023-03-22T11:21:37.060Z,5.63
2023-03-22T11:24:39.288Z,6.22
2023-03-22T11:28:16.763Z,5.10
2023-03-22T11:31:21.715Z,5.00
2023-03-22T11:34:27.591Z,5.40
2023-03-22T11:37:29.683Z,4.68
2023-03-22T11:40:34.965Z,5.57
2023-03-22T11:43:46.354Z,5.27
2023-03-22T11:46:55.898Z,4.53
2023-03-22T11:49:57.585Z,4.35
2023-03-22T11:53:07.097Z,8.82
2023-03-22T11:56:12.442Z,4.70
2023-03-22T11:59:40.212Z,5.67
2023-03-22T12:02:51.724Z,4.90
2023-03-22T12:05:55.029Z,5.75
2023-03-22T12:09:01.884Z,5.53
2023-03-22T12:12:06.382Z,5.05
2023-03-22T12:15:11.056Z,4.70
2023-03-22T12:18:19.821Z,6.72
2023-03-22T12:21:21.455Z,4.68
2023-03-22T12:24:32.273Z,5.60
2023-03-22T12:27:41.433Z,6.05
2023-03-22T12:30:47.547Z,5.00
2023-03-22T12:33:53.791Z,5.43
2023-03-22T12:36:57.287Z,4.60
2023-03-22T12:40:05.602Z,4.68
2023-03-22T12:43:32.161Z,4.43
2023-03-22T12:46:40.074Z,5.53
2023-03-22T12:50:02.829Z,5.57
2023-03-22T12:53:05.322Z,4.47
2023-03-22T12:56:07.952Z,4.43
2023-03-22T12:59:30.808Z,5.03
2023-03-22T13:02:35.054Z,5.53
2023-03-22T13:05:37.645Z,4.60
2023-03-22T13:09:15.519Z,4.95
2023-03-22T13:12:18.224Z,4.60
2023-03-22T13:15:41.797Z,5.53
2023-03-22T13:18:47.603Z,4.77
2023-03-22T13:21:50.135Z,5.18
2023-03-22T13:25:29.159Z,4.60
2023-03-22T13:28:37.131Z,4.03
2023-03-22T13:31:45.397Z,4.82
2023-03-22T13:34:52.578Z,5.13
2023-03-22T13:38:03.135Z,4.38
2023-03-22T13:41:13.842Z,5.28
2023-03-22T13:44:27.428Z,5.05
2023-03-22T13:47:46.554Z,5.05
2023-03-22T13:50:49.082Z,5.23
2023-03-22T13:53:57.188Z,5.20
2023-03-22T13:57:01.654Z,4.75
2023-03-22T14:00:20.215Z,4.90
2023-03-22T14:03:35.811Z,4.80
2023-03-22T14:07:00.187Z,5.53
2023-03-22T14:10:12.803Z,4.55
2023-03-22T14:13:21.123Z,4.65
2023-03-22T14:16:36.808Z,4.90
2023-03-22T14:19:41.940Z,5.05
